Time;durP1;ratioP1;P1;durP2;ratioP2;P2;SDS_P1;SDS_P2;PMS_P1;PMS_P2;Temp;Humidity;BMP_temperature;BMP_pressure;BME280_temperature;BME280_humidity;BME280_pressure;Samples;Min_cycle;Max_cycle;Signal;HPM_P1;HPM_P2
2023/10/31 00:00:18;;;;;;;28.83;17.63;;;11.60;99.90;;;;;;7377417;19;20026;-65
2023/10/31 00:02:44;;;;;;;23.13;16.92;;;11.70;99.90;;;;;;7379287;19;20025;-63
2023/10/31 00:05:10;;;;;;;23.05;17.10;;;11.70;99.90;;;;;;7379256;19;20022;-63
2023/10/31 00:07:36;;;;;;;25.42;16.98;;;11.60;99.90;;;;;;7374438;19;20085;-64
2023/10/31 00:10:03;;;;;;;31.02;18.23;;;11.70;99.90;;;;;;7379592;19;20018;-64
2023/10/31 00:12:29;;;;;;;28.38;18.58;;;11.70;99.90;;;;;;7374743;19;20018;-63
2023/10/31 00:14:56;;;;;;;23.90;17.95;;;11.70;99.90;;;;;;7380218;19;20604;-64
2023/10/31 00:17:22;;;;;;;23.02;17.33;;;11.70;99.90;;;;;;7375969;19;20018;-64
2023/10/31 00:19:48;;;;;;;30.73;19.42;;;11.70;99.90;;;;;;7380273;19;20018;-63
2023/10/31 00:22:15;;;;;;;28.40;19.27;;;11.70;99.90;;;;;;7377780;19;20082;-65
2023/10/31 00:24:42;;;;;;;31.80;19.40;;;11.70;99.90;;;;;;7376125;19;20027;-65
2023/10/31 00:27:08;;;;;;;29.60;18.90;;;11.70;99.90;;;;;;7378929;19;20021;-64
2023/10/31 00:29:35;;;;;;;29.85;19.20;;;11.70;99.90;;;;;;7376586;19;20033;-65
2023/10/31 00:32:01;;;;;;;29.23;19.40;;;11.60;99.90;;;;;;7374438;19;20042;-65
2023/10/31 00:34:29;;;;;;;28.10;19.55;;;11.70;99.90;;;;;;7377253;19;20346;-64
2023/10/31 00:36:55;;;;;;;33.90;19.77;;;11.70;99.90;;;;;;7377020;19;20025;-65
2023/10/31 00:39:21;;;;;;;33.63;20.42;;;11.70;99.90;;;;;;7371676;19;20026;-65
2023/10/31 00:41:49;;;;;;;32.95;20.33;;;11.70;99.90;;;;;;7376793;19;20014;-66
2023/10/31 00:44:16;;;;;;;33.15;19.85;;;11.70;99.90;;;;;;7377021;19;20081;-65
2023/10/31 00:46:43;;;;;;;21.80;13.82;;;11.70;99.90;;;;;;7380333;19;20030;-64
2023/10/31 00:49:10;;;;;;;16.52;9.68;;;11.60;99.90;;;;;;7380007;19;20090;-65
2023/10/31 00:51:36;;;;;;;8.70;5.57;;;11.60;99.90;;;;;;7377036;19;20032;-62
2023/10/31 00:54:02;;;;;;;5.55;3.95;;;11.50;99.90;;;;;;7378584;19;20060;-65
2023/10/31 00:56:28;;;;;;;3.75;2.80;;;11.40;99.90;;;;;;7372537;19;20015;-64
2023/10/31 00:58:54;;;;;;;6.05;2.90;;;11.30;99.90;;;;;;7379667;19;20010;-62
2023/10/31 01:01:21;;;;;;;4.10;2.38;;;11.30;99.90;;;;;;7375537;19;20018;-62
2023/10/31 01:03:47;;;;;;;8.25;4.10;;;11.20;99.90;;;;;;7379652;19;20452;-62
2023/10/31 01:06:13;;;;;;;3.17;1.90;;;11.20;99.90;;;;;;7377177;19;20650;-61
2023/10/31 01:08:39;;;;;;;5.75;2.75;;;11.20;99.90;;;;;;7373044;19;20107;-62
2023/10/31 01:11:06;;;;;;;3.97;2.60;;;11.10;99.90;;;;;;7367228;19;20015;-63
2023/10/31 01:13:33;;;;;;;4.28;2.22;;;11.10;99.90;;;;;;7375851;19;20082;-62
2023/10/31 01:16:01;;;;;;;4.72;2.45;;;11.00;99.90;;;;;;7373933;19;20060;-62
2023/10/31 01:18:27;;;;;;;7.68;4.35;;;11.00;99.90;;;;;;7374622;19;20026;-62
2023/10/31 01:20:53;;;;;;;4.82;2.90;;;11.00;99.90;;;;;;7377547;19;20022;-62
2023/10/31 01:23:21;;;;;;;5.85;3.17;;;10.90;99.90;;;;;;7377170;19;20014;-62
2023/10/31 01:25:47;;;;;;;5.93;3.83;;;10.80;99.90;;;;;;7377277;19;20086;-62
2023/10/31 01:28:14;;;;;;;4.72;3.50;;;10.80;99.90;;;;;;7378200;19;20014;-62
2023/10/31 01:30:41;;;;;;;4.30;3.05;;;10.80;99.90;;;;;;7374814;19;20014;-62
2023/10/31 01:33:07;;;;;;;6.20;2.67;;;10.70;99.90;;;;;;7374845;19;20037;-62
2023/10/31 01:35:33;;;;;;;3.00;1.88;;;10.70;99.90;;;;;;7374258;19;20106;-62
2023/10/31 01:37:59;;;;;;;1.95;1.40;;;10.70;99.90;;;;;;7376819;19;20018;-62
2023/10/31 01:40:26;;;;;;;4.00;1.20;;;10.60;99.90;;;;;;7371699;19;20052;-63
2023/10/31 01:42:55;;;;;;;4.40;1.10;;;10.50;99.90;;;;;;7375825;19;20027;-63
2023/10/31 01:45:22;;;;;;;3.75;1.30;;;10.50;99.90;;;;;;7375927;19;20096;-64
2023/10/31 01:47:49;;;;;;;5.55;1.40;;;10.50;99.90;;;;;;7376318;19;20010;-64
2023/10/31 01:50:20;;;;;;;3.58;1.05;;;10.40;99.90;;;;;;7377632;19;20046;-62
2023/10/31 01:52:46;;;;;;;2.38;0.88;;;10.30;99.90;;;;;;7374987;19;20011;-62
2023/10/31 01:55:14;;;;;;;2.53;0.90;;;10.30;99.90;;;;;;7377369;19;20024;-62
2023/10/31 01:57:41;;;;;;;4.90;2.65;;;10.30;99.90;;;;;;7373591;19;20949;-62
2023/10/31 02:00:07;;;;;;;5.10;1.35;;;10.30;99.90;;;;;;7377653;19;20103;-63
2023/10/31 02:02:42;;;;;;;4.28;1.20;;;10.20;99.90;;;;;;7376629;19;20015;-63
2023/10/31 02:05:09;;;;;;;4.40;1.50;;;10.20;99.90;;;;;;7371903;19;20015;-63
2023/10/31 02:07:36;;;;;;;4.85;1.23;;;10.10;99.90;;;;;;7374440;19;20086;-63
2023/10/31 02:10:02;;;;;;;5.70;1.58;;;10.10;99.90;;;;;;7373697;19;20018;-63
2023/10/31 02:12:35;;;;;;;6.25;2.78;;;10.10;99.90;;;;;;7373988;19;20829;-63
2023/10/31 02:15:02;;;;;;;5.18;1.40;;;10.10;99.90;;;;;;7372917;19;20033;-63
2023/10/31 02:17:28;;;;;;;7.63;1.48;;;10.10;99.90;;;;;;7375778;19;20026;-63
2023/10/31 02:19:55;;;;;;;7.28;1.65;;;10.10;99.90;;;;;;7370838;19;20729;-65
2023/10/31 02:22:22;;;;;;;6.03;1.70;;;10.10;99.90;;;;;;7370532;19;20015;-64
2023/10/31 02:24:49;;;;;;;6.97;1.70;;;10.10;99.90;;;;;;7370908;19;20015;-64
2023/10/31 02:27:15;;;;;;;5.93;1.70;;;10.10;99.90;;;;;;7371355;19;20032;-65
2023/10/31 02:29:42;;;;;;;3.75;1.58;;;10.10;99.90;;;;;;7372500;19;20341;-64
2023/10/31 02:32:08;;;;;;;5.55;1.85;;;10.00;99.90;;;;;;7369831;19;20057;-64
2023/10/31 02:34:34;;;;;;;8.18;1.95;;;10.00;99.90;;;;;;7370584;19;20022;-64
2023/10/31 02:37:00;;;;;;;5.65;2.20;;;10.00;99.90;;;;;;7370816;19;20014;-64
2023/10/31 02:39:27;;;;;;;4.75;2.05;;;10.00;99.90;;;;;;7368618;19;20026;-64
2023/10/31 02:41:54;;;;;;;6.97;1.95;;;10.00;99.90;;;;;;7370557;19;20050;-64
2023/10/31 02:44:21;;;;;;;4.32;1.92;;;10.00;99.90;;;;;;7365281;19;20018;-63
2023/10/31 02:46:47;;;;;;;7.13;2.30;;;10.00;99.90;;;;;;7373993;19;20026;-63
2023/10/31 02:49:13;;;;;;;9.32;2.85;;;10.00;99.90;;;;;;7377318;19;20022;-64
2023/10/31 02:51:41;;;;;;;10.18;2.53;;;10.00;99.90;;;;;;7368149;19;20018;-64
2023/10/31 02:54:07;;;;;;;9.18;2.70;;;10.00;99.90;;;;;;7366008;19;20354;-64
2023/10/31 02:56:34;;;;;;;10.38;2.85;;;10.00;99.90;;;;;;7370030;19;20015;-63
2023/10/31 02:59:00;;;;;;;7.95;2.35;;;10.00;99.90;;;;;;7373565;19;20042;-64
2023/10/31 03:01:29;;;;;;;8.70;2.60;;;10.00;99.90;;;;;;7372806;19;20025;-63
2023/10/31 03:03:55;;;;;;;10.13;3.05;;;10.00;99.90;;;;;;7367075;19;20021;-63
2023/10/31 03:06:21;;;;;;;10.93;3.10;;;10.00;99.90;;;;;;7367415;19;20025;-63
2023/10/31 03:08:48;;;;;;;7.90;4.20;;;10.00;99.90;;;;;;7368545;19;20030;-64
2023/10/31 03:11:22;;;;;;;10.45;4.93;;;10.00;99.90;;;;;;7371943;19;20015;-64
2023/10/31 03:13:53;;;;;;;11.40;4.20;;;10.00;99.90;;;;;;7367066;19;20955;-64
2023/10/31 03:16:19;;;;;;;12.38;5.10;;;10.10;99.90;;;;;;7369998;19;20026;-64
2023/10/31 03:18:46;;;;;;;14.10;4.82;;;10.00;99.90;;;;;;7370087;19;20023;-63
2023/10/31 03:21:14;;;;;;;9.13;4.97;;;10.00;99.90;;;;;;7370289;19;20837;-64
2023/10/31 03:23:48;;;;;;;11.45;6.50;;;10.10;99.90;;;;;;7365732;19;20066;-64
2023/10/31 03:26:19;;;;;;;10.25;5.55;;;10.10;99.90;;;;;;7369062;19;20030;-64
2023/10/31 03:28:46;;;;;;;15.05;5.78;;;10.10;99.90;;;;;;7369719;19;20023;-64
2023/10/31 03:31:13;;;;;;;11.90;5.60;;;10.10;99.90;;;;;;7372288;19;20046;-64
2023/10/31 03:33:39;;;;;;;14.02;4.57;;;10.10;99.90;;;;;;7380752;19;20731;-64
2023/10/31 03:36:06;;;;;;;8.73;4.60;;;10.10;99.90;;;;;;7374637;19;20019;-65
2023/10/31 03:38:34;;;;;;;11.82;5.22;;;10.10;99.90;;;;;;7359311;19;20010;-63
2023/10/31 03:41:01;;;;;;;11.80;4.95;;;10.10;99.90;;;;;;7376220;19;20058;-64
2023/10/31 03:43:27;;;;;;;8.10;4.18;;;10.10;99.90;;;;;;7381049;19;20753;-64
2023/10/31 03:45:55;;;;;;;8.50;4.35;;;10.10;99.90;;;;;;7374197;19;20094;-64
2023/10/31 03:48:24;;;;;;;9.80;4.72;;;10.10;99.90;;;;;;7378961;19;20022;-64
2023/10/31 03:50:51;;;;;;;10.35;4.13;;;10.10;99.90;;;;;;7376507;19;20043;-63
2023/10/31 03:53:17;;;;;;;11.25;4.57;;;10.10;99.90;;;;;;7374136;19;20023;-63
2023/10/31 03:55:45;;;;;;;8.00;4.20;;;10.10;99.90;;;;;;7380225;19;20022;-63
2023/10/31 03:58:11;;;;;;;11.63;4.40;;;10.10;99.90;;;;;;7376431;19;20102;-64
2023/10/31 04:00:39;;;;;;;8.43;3.90;;;10.00;99.90;;;;;;7379470;19;20027;-64
2023/10/31 04:03:05;;;;;;;9.57;4.57;;;10.00;99.90;;;;;;7379337;19;20773;-64
2023/10/31 04:05:31;;;;;;;7.72;3.17;;;10.10;99.90;;;;;;7377306;19;20015;-63
2023/10/31 04:07:57;;;;;;;5.90;2.72;;;10.10;99.90;;;;;;7375764;19;20021;-62
2023/10/31 04:10:25;;;;;;;6.03;2.42;;;10.10;99.90;;;;;;7377784;19;20019;-62
2023/10/31 04:12:51;;;;;;;4.53;2.20;;;10.10;99.90;;;;;;7377060;19;20440;-62
2023/10/31 04:15:17;;;;;;;5.05;1.98;;;10.20;99.90;;;;;;7380351;19;20086;-62
2023/10/31 04:17:43;;;;;;;4.85;1.88;;;10.20;99.90;;;;;;7375140;19;20037;-62
2023/10/31 04:20:10;;;;;;;5.25;2.88;;;10.10;99.90;;;;;;7377418;19;20023;-62
2023/10/31 04:22:36;;;;;;;8.27;3.47;;;10.20;99.90;;;;;;7376789;19;20462;-64
2023/10/31 04:25:04;;;;;;;8.85;3.70;;;10.20;99.90;;;;;;7376515;19;20016;-62
2023/10/31 04:27:30;;;;;;;8.55;3.90;;;10.20;99.90;;;;;;7377183;19;20027;-62
2023/10/31 04:29:56;;;;;;;6.80;4.32;;;10.20;99.90;;;;;;7377877;19;20761;-62
2023/10/31 04:32:23;;;;;;;7.45;3.47;;;10.20;99.90;;;;;;7374410;19;20109;-62
2023/10/31 04:34:52;;;;;;;6.07;2.95;;;10.20;99.90;;;;;;7374841;19;20685;-64
2023/10/31 04:37:18;;;;;;;7.90;2.90;;;10.20;99.90;;;;;;7379015;19;20026;-64
2023/10/31 04:39:44;;;;;;;7.43;2.80;;;10.20;99.90;;;;;;7372188;19;20042;-64
2023/10/31 04:42:10;;;;;;;7.95;2.65;;;10.20;99.90;;;;;;7377744;19;20022;-66
2023/10/31 04:44:37;;;;;;;8.25;3.25;;;10.20;99.90;;;;;;7374551;19;20394;-64
2023/10/31 04:47:04;;;;;;;9.93;3.17;;;10.20;99.90;;;;;;7374374;19;20033;-63
2023/10/31 04:49:30;;;;;;;7.10;2.83;;;10.20;99.90;;;;;;7376479;19;20022;-63
2023/10/31 04:51:56;;;;;;;9.13;2.92;;;10.20;99.90;;;;;;7378324;19;20010;-64
2023/10/31 04:54:22;;;;;;;8.68;2.80;;;10.20;99.90;;;;;;7378924;19;20018;-64
2023/10/31 04:56:49;;;;;;;6.90;2.80;;;10.20;99.90;;;;;;7370832;19;20807;-64
2023/10/31 04:59:16;;;;;;;7.38;2.35;;;10.10;99.90;;;;;;7376566;19;20026;-64
2023/10/31 05:01:49;;;;;;;6.78;2.25;;;10.20;99.90;;;;;;7373910;19;20038;-64
2023/10/31 05:04:15;;;;;;;7.15;2.38;;;10.10;99.90;;;;;;7375293;19;20018;-64
2023/10/31 05:06:42;;;;;;;6.55;2.20;;;10.10;99.90;;;;;;7368935;19;20042;-64
2023/10/31 05:09:09;;;;;;;8.02;2.28;;;10.10;99.90;;;;;;7377327;19;20030;-63
2023/10/31 05:11:35;;;;;;;6.53;1.98;;;10.00;99.90;;;;;;7375813;19;20015;-64
2023/10/31 05:14:02;;;;;;;5.93;2.10;;;10.00;99.90;;;;;;7380481;19;20026;-64
2023/10/31 05:16:28;;;;;;;6.45;1.77;;;10.00;99.90;;;;;;7375233;19;20837;-64
2023/10/31 05:18:54;;;;;;;7.55;1.75;;;10.00;99.90;;;;;;7379966;19;20122;-63
2023/10/31 05:21:20;;;;;;;4.70;1.75;;;10.00;99.90;;;;;;7374915;19;20439;-63
2023/10/31 05:23:47;;;;;;;6.03;2.10;;;10.00;99.90;;;;;;7376494;19;20022;-64
2023/10/31 05:26:13;;;;;;;6.82;1.92;;;10.00;99.90;;;;;;7369160;19;20018;-63
2023/10/31 05:28:39;;;;;;;6.22;1.88;;;10.00;99.90;;;;;;7375910;19;20021;-63
2023/10/31 05:31:05;;;;;;;6.47;1.70;;;10.00;99.90;;;;;;7372662;19;20022;-63
2023/10/31 05:33:31;;;;;;;8.00;1.90;;;10.00;99.90;;;;;;7372817;19;20022;-64
2023/10/31 05:35:58;;;;;;;6.43;1.95;;;10.00;99.90;;;;;;7372533;19;20366;-63
2023/10/31 05:38:24;;;;;;;4.78;2.10;;;10.00;99.90;;;;;;7374966;19;20030;-64
2023/10/31 05:40:50;;;;;;;7.32;2.17;;;10.00;99.90;;;;;;7375865;19;20379;-64
2023/10/31 05:43:16;;;;;;;6.40;1.75;;;10.00;99.90;;;;;;7378420;19;20530;-65
2023/10/31 05:45:43;;;;;;;6.13;1.80;;;10.00;99.90;;;;;;7372765;19;20018;-64
2023/10/31 05:48:10;;;;;;;5.28;1.65;;;10.00;99.90;;;;;;7378693;19;20090;-64
2023/10/31 05:50:36;;;;;;;6.07;1.90;;;10.00;99.90;;;;;;7378346;19;20021;-64
2023/10/31 05:53:02;;;;;;;6.90;2.03;;;10.00;99.90;;;;;;7369870;19;20021;-65
2023/10/31 05:55:28;;;;;;;6.70;2.97;;;10.00;99.90;;;;;;7366913;19;20014;-61
2023/10/31 05:57:54;;;;;;;14.07;9.38;;;10.10;99.90;;;;;;7369291;19;20014;-61
2023/10/31 06:00:20;;;;;;;6.18;3.15;;;10.20;99.90;;;;;;7378453;19;20017;-65
2023/10/31 06:03:21;;;;;;;7.95;2.72;;;10.20;99.90;;;;;;7390064;19;20478;-64
2023/10/31 06:05:47;;;;;;;6.53;2.33;;;10.20;99.90;;;;;;7395666;19;20090;-65
2023/10/31 06:08:13;;;;;;;9.70;3.55;;;10.20;99.90;;;;;;7395946;19;20006;-65
2023/10/31 06:10:40;;;;;;;8.55;2.50;;;10.20;99.90;;;;;;7383732;19;20029;-72
2023/10/31 06:13:06;;;;;;;6.13;2.08;;;10.10;99.90;;;;;;7371667;19;20082;-60
2023/10/31 06:15:32;;;;;;;6.45;2.38;;;10.10;99.90;;;;;;7380530;19;20470;-66
2023/10/31 06:17:58;;;;;;;5.03;2.00;;;10.20;99.90;;;;;;7384658;19;20038;-64
2023/10/31 06:20:24;;;;;;;6.38;2.33;;;10.20;99.90;;;;;;7381089;19;20022;-60
2023/10/31 06:22:52;;;;;;;7.20;2.42;;;10.20;99.90;;;;;;7371748;19;20014;-64
2023/10/31 06:25:18;;;;;;;7.57;2.20;;;10.10;99.90;;;;;;7382935;19;20370;-60
2023/10/31 06:27:44;;;;;;;7.93;2.72;;;10.20;99.90;;;;;;7374535;19;20018;-62
2023/10/31 06:30:11;;;;;;;4.95;2.22;;;10.10;99.90;;;;;;7372281;19;20120;-63
2023/10/31 06:32:39;;;;;;;6.18;2.22;;;10.10;99.90;;;;;;7371672;19;20073;-63
2023/10/31 06:35:06;;;;;;;6.97;2.78;;;10.10;99.90;;;;;;7374364;19;20022;-63
2023/10/31 06:37:32;;;;;;;8.48;3.15;;;10.00;99.90;;;;;;7369778;19;20348;-64
2023/10/31 06:39:59;;;;;;;6.90;3.10;;;10.00;99.90;;;;;;7376281;19;20022;-63
2023/10/31 06:42:25;;;;;;;7.82;3.13;;;10.10;99.90;;;;;;7374708;19;20010;-63
2023/10/31 06:44:51;;;;;;;7.07;2.90;;;10.00;99.90;;;;;;7374006;19;20500;-64
2023/10/31 06:47:17;;;;;;;7.80;3.40;;;10.00;99.90;;;;;;7373001;19;20018;-58
2023/10/31 06:49:45;;;;;;;7.75;3.53;;;10.10;99.90;;;;;;7376134;19;20018;-63
2023/10/31 06:52:11;;;;;;;7.40;3.80;;;10.10;99.90;;;;;;7371715;19;20014;-64
2023/10/31 06:54:37;;;;;;;10.68;4.00;;;10.10;99.90;;;;;;7373904;19;20010;-64
2023/10/31 06:57:04;;;;;;;9.65;4.65;;;10.10;99.90;;;;;;7371679;19;20093;-64
2023/10/31 06:59:30;;;;;;;10.75;4.40;;;10.10;99.90;;;;;;7375345;19;20801;-64
2023/10/31 07:01:56;;;;;;;8.00;4.80;;;10.10;99.90;;;;;;7369576;19;20082;-64
2023/10/31 07:04:22;;;;;;;8.60;5.22;;;10.10;99.90;;;;;;7373163;19;20018;-64
2023/10/31 07:06:48;;;;;;;8.93;5.68;;;10.10;99.90;;;;;;7371794;19;20014;-64
2023/10/31 07:09:15;;;;;;;9.85;5.97;;;10.20;99.90;;;;;;7373944;19;20505;-64
2023/10/31 07:11:41;;;;;;;8.32;6.10;;;10.20;99.90;;;;;;7371787;19;20081;-65
2023/10/31 07:14:07;;;;;;;12.43;6.97;;;10.20;99.90;;;;;;7375221;19;20018;-65
2023/10/31 07:16:34;;;;;;;11.77;7.55;;;10.20;99.90;;;;;;7373838;19;20019;-65
2023/10/31 07:19:00;;;;;;;13.73;7.93;;;10.20;99.90;;;;;;7376934;19;20025;-65
2023/10/31 07:21:26;;;;;;;10.13;7.90;;;10.20;99.90;;;;;;7373355;19;20076;-63
2023/10/31 07:23:52;;;;;;;12.80;8.35;;;10.30;99.90;;;;;;7372252;19;20026;-64
2023/10/31 07:26:19;;;;;;;10.85;7.97;;;10.30;99.90;;;;;;7375309;19;20071;-64
2023/10/31 07:28:47;;;;;;;11.27;8.55;;;10.30;99.90;;;;;;7371187;19;20653;-64
2023/10/31 07:31:13;;;;;;;12.68;9.32;;;10.30;99.90;;;;;;7373190;19;20022;-64
2023/10/31 07:33:39;;;;;;;12.88;9.30;;;10.30;99.90;;;;;;7371286;19;20656;-64
2023/10/31 07:36:06;;;;;;;11.10;8.60;;;10.40;99.90;;;;;;7374440;19;20031;-64
2023/10/31 07:38:33;;;;;;;12.60;8.93;;;10.40;99.90;;;;;;7370842;19;20027;-64
2023/10/31 07:40:59;;;;;;;12.70;8.90;;;10.50;99.90;;;;;;7371919;19;20018;-65
2023/10/31 07:43:25;;;;;;;13.07;8.80;;;10.50;99.90;;;;;;7372426;19;20038;-63
2023/10/31 07:45:52;;;;;;;15.07;9.48;;;10.60;99.90;;;;;;7370838;19;20022;-64
2023/10/31 07:48:18;;;;;;;13.88;8.68;;;10.70;99.90;;;;;;7372618;19;20470;-63
2023/10/31 07:50:46;;;;;;;10.73;7.75;;;10.70;99.90;;;;;;7370703;19;20865;-65
2023/10/31 07:53:12;;;;;;;11.60;8.43;;;10.80;99.90;;;;;;7368014;19;20183;-66
2023/10/31 07:55:38;;;;;;;12.88;7.90;;;10.80;99.90;;;;;;7368706;19;20014;-66
2023/10/31 07:58:04;;;;;;;12.60;7.38;;;10.90;99.90;;;;;;7373808;19;20403;-65
2023/10/31 08:00:39;;;;;;;12.65;7.20;;;10.90;99.90;;;;;;7368918;19;20018;-66
2023/10/31 08:03:05;;;;;;;9.60;6.50;;;11.00;99.90;;;;;;7371265;19;20026;-66
2023/10/31 08:05:31;;;;;;;12.40;6.63;;;11.00;99.90;;;;;;7371363;19;20025;-66
2023/10/31 08:07:58;;;;;;;11.85;5.90;;;11.10;99.90;;;;;;7372899;19;20651;-66
2023/10/31 08:10:24;;;;;;;9.55;4.93;;;11.10;99.90;;;;;;7372661;19;20481;-66
2023/10/31 08:12:50;;;;;;;6.40;2.95;;;11.10;99.90;;;;;;7369505;19;20082;-66
2023/10/31 08:15:17;;;;;;;9.13;2.67;;;11.10;99.90;;;;;;7370921;19;20056;-66
2023/10/31 08:17:43;;;;;;;9.88;2.20;;;11.20;99.90;;;;;;7373767;19;20014;-66
2023/10/31 08:20:10;;;;;;;5.43;1.70;;;11.30;99.90;;;;;;7375797;19;20775;-65
2023/10/31 08:22:37;;;;;;;10.07;2.35;;;11.40;99.90;;;;;;7379191;19;20022;-66
2023/10/31 08:25:04;;;;;;;6.90;2.50;;;11.40;99.90;;;;;;7379820;19;20564;-66
2023/10/31 08:27:30;;;;;;;5.85;2.80;;;11.60;99.90;;;;;;7377861;19;20017;-62
2023/10/31 08:29:56;;;;;;;6.30;2.42;;;11.70;99.90;;;;;;7375705;19;20042;-66
2023/10/31 08:32:24;;;;;;;10.23;3.13;;;11.90;99.90;;;;;;7375235;19;20757;-66
2023/10/31 08:34:51;;;;;;;6.05;2.85;;;12.10;99.90;;;;;;7375772;19;20014;-66
2023/10/31 08:37:17;;;;;;;6.20;3.17;;;12.30;99.90;;;;;;7378035;19;20055;-66
2023/10/31 08:39:44;;;;;;;3.72;1.92;;;12.40;99.90;;;;;;7378324;19;20353;-66
2023/10/31 08:42:10;;;;;;;6.15;2.70;;;12.60;99.90;;;;;;7379248;19;20018;-66
2023/10/31 08:44:37;;;;;;;6.70;2.25;;;12.60;99.90;;;;;;7378151;19;20022;-66
2023/10/31 08:47:04;;;;;;;7.80;1.58;;;12.60;99.90;;;;;;7379674;19;20016;-66
2023/10/31 08:49:30;;;;;;;9.93;3.03;;;12.70;99.90;;;;;;7375916;19;20025;-66
2023/10/31 08:51:57;;;;;;;3.53;1.20;;;12.60;99.90;;;;;;7379773;19;20023;-66
2023/10/31 08:54:24;;;;;;;5.88;1.30;;;12.50;99.90;;;;;;7376725;19;20022;-66
2023/10/31 08:56:50;;;;;;;6.57;1.10;;;12.60;99.90;;;;;;7377095;19;20022;-67
2023/10/31 08:59:16;;;;;;;4.05;0.98;;;13.00;99.90;;;;;;7377688;19;20030;-66
2023/10/31 09:01:42;;;;;;;4.13;1.40;;;13.10;99.90;;;;;;7375447;19;20022;-68
2023/10/31 09:04:08;;;;;;;4.60;1.35;;;13.10;99.90;;;;;;7371850;19;20739;-66
2023/10/31 09:06:37;;;;;;;8.60;1.58;;;13.00;99.90;;;;;;7375886;19;20038;-66
2023/10/31 09:09:04;;;;;;;3.28;0.80;;;12.90;99.90;;;;;;7377293;19;20646;-66
2023/10/31 09:11:30;;;;;;;4.47;0.70;;;13.30;99.90;;;;;;7377445;19;20078;-66
2023/10/31 09:13:56;;;;;;;6.10;1.00;;;13.90;99.90;;;;;;7379582;19;20023;-65
2023/10/31 09:16:23;;;;;;;3.65;0.75;;;14.30;99.90;;;;;;7382555;19;20358;-67
2023/10/31 09:18:52;;;;;;;5.15;0.98;;;14.80;99.90;;;;;;7385541;19;20014;-68
2023/10/31 09:21:18;;;;;;;5.47;0.80;;;15.30;99.90;;;;;;7384923;19;20010;-68
2023/10/31 09:23:45;;;;;;;3.67;0.60;;;15.40;99.90;;;;;;7384457;19;20375;-67
2023/10/31 09:26:11;;;;;;;2.20;0.50;;;15.00;99.90;;;;;;7385347;19;20416;-67
2023/10/31 09:28:39;;;;;;;4.22;0.60;;;14.60;99.90;;;;;;7372290;19;20516;-66
2023/10/31 09:31:05;;;;;;;3.03;0.70;;;14.20;99.90;;;;;;7370296;19;20006;-66
2023/10/31 09:33:32;;;;;;;4.82;0.93;;;13.60;99.90;;;;;;7371295;19;20018;-66
2023/10/31 09:35:58;;;;;;;3.28;0.52;;;13.70;99.90;;;;;;7377855;19;20019;-66
2023/10/31 09:38:24;;;;;;;3.90;0.77;;;14.00;99.90;;;;;;7375659;19;20014;-66
2023/10/31 09:40:50;;;;;;;4.90;0.80;;;14.20;99.90;;;;;;7375748;19;20014;-66
2023/10/31 09:43:17;;;;;;;3.90;0.60;;;14.40;99.90;;;;;;7376515;19;20027;-65
2023/10/31 09:45:45;;;;;;;4.13;0.75;;;14.30;99.90;;;;;;7377284;19;20053;-67
2023/10/31 09:48:11;;;;;;;5.30;0.90;;;14.10;99.90;;;;;;7384237;19;20007;-67
2023/10/31 09:50:38;;;;;;;4.10;0.63;;;13.80;99.90;;;;;;7380741;19;20859;-65
2023/10/31 09:53:06;;;;;;;6.20;1.13;;;13.60;99.90;;;;;;7373779;19;20014;-65
2023/10/31 09:55:33;;;;;;;3.45;0.55;;;13.40;99.90;;;;;;7377137;19;20078;-65
2023/10/31 09:58:02;;;;;;;3.63;0.52;;;13.20;99.90;;;;;;7375868;19;20506;-67
2023/10/31 10:00:29;;;;;;;1.98;0.68;;;13.00;99.90;;;;;;7375051;19;20082;-62
2023/10/31 10:02:55;;;;;;;4.22;0.85;;;12.80;99.90;;;;;;7376766;19;20021;-66
2023/10/31 10:05:23;;;;;;;1.92;0.40;;;12.70;99.90;;;;;;7373284;19;20033;-66
2023/10/31 10:07:50;;;;;;;2.75;0.60;;;12.50;99.90;;;;;;7377162;19;20391;-64
2023/10/31 10:10:16;;;;;;;3.05;0.50;;;12.50;99.90;;;;;;7375535;19;20021;-65
2023/10/31 10:12:43;;;;;;;2.22;0.45;;;12.60;99.90;;;;;;7370618;19;20044;-65
2023/10/31 10:15:11;;;;;;;2.08;0.30;;;12.50;99.90;;;;;;7376343;19;20524;-66
2023/10/31 10:17:39;;;;;;;2.47;0.40;;;12.30;99.90;;;;;;7373575;19;20022;-65
2023/10/31 10:20:10;;;;;;;3.03;0.40;;;12.40;99.90;;;;;;7375143;19;20074;-66
2023/10/31 10:22:44;;;;;;;0.55;0.38;;;12.40;99.90;;;;;;7372315;19;20014;-66
2023/10/31 10:25:14;;;;;;;4.03;0.73;;;12.30;99.90;;;;;;7376719;19;20070;-67
2023/10/31 10:27:40;;;;;;;4.35;0.70;;;12.40;99.90;;;;;;7375594;19;20018;-65
2023/10/31 10:30:08;;;;;;;2.88;0.88;;;12.40;99.90;;;;;;7371388;19;20057;-66
2023/10/31 10:32:34;;;;;;;3.13;0.80;;;12.30;99.90;;;;;;7371694;19;20022;-66
2023/10/31 10:35:01;;;;;;;3.03;0.80;;;12.20;99.90;;;;;;7379586;19;20033;-65
2023/10/31 10:37:27;;;;;;;3.08;0.80;;;12.20;99.90;;;;;;7375958;19;20041;-65
2023/10/31 10:39:57;;;;;;;5.30;1.40;;;12.20;99.90;;;;;;7373453;19;20041;-65
2023/10/31 10:42:37;;;;;;;3.90;0.90;;;12.20;99.90;;;;;;7376020;19;20590;-66
2023/10/31 10:45:05;;;;;;;6.05;0.93;;;12.10;99.90;;;;;;7373608;19;20018;-65
2023/10/31 10:47:34;;;;;;;2.25;0.63;;;12.20;99.90;;;;;;7374936;19;20018;-66
2023/10/31 10:50:02;;;;;;;7.10;1.10;;;12.20;99.90;;;;;;7373177;19;20018;-66
2023/10/31 10:53:00;;;;;;;6.18;0.98;;;12.20;99.90;;;;;;7377311;19;20045;-65
2023/10/31 10:55:30;;;;;;;5.95;1.00;;;12.30;99.90;;;;;;7376735;19;20023;-65
2023/10/31 10:58:13;;;;;;;1.88;0.70;;;12.30;99.90;;;;;;7374547;19;20643;-65
2023/10/31 11:00:41;;;;;;;4.22;1.08;;;12.50;99.90;;;;;;7377307;19;20021;-66
2023/10/31 11:03:08;;;;;;;5.88;1.00;;;12.50;99.90;;;;;;7378368;19;20021;-66
2023/10/31 11:05:35;;;;;;;3.97;0.75;;;12.70;99.90;;;;;;7378833;19;20014;-66
2023/10/31 11:08:02;;;;;;;4.30;0.73;;;12.80;99.90;;;;;;7378939;19;20014;-66
2023/10/31 11:10:29;;;;;;;6.15;1.10;;;12.80;99.90;;;;;;7379072;19;20010;-66
2023/10/31 11:12:56;;;;;;;5.82;0.80;;;12.80;99.90;;;;;;7372128;19;20564;-66
2023/10/31 11:15:25;;;;;;;5.97;0.63;;;12.90;99.90;;;;;;7381126;19;20018;-65
2023/10/31 11:17:52;;;;;;;3.78;0.90;;;12.80;99.90;;;;;;7370832;19;20015;-66
2023/10/31 11:20:20;;;;;;;3.33;0.60;;;12.80;99.90;;;;;;7375105;19;20094;-66
2023/10/31 11:22:49;;;;;;;3.63;0.60;;;12.80;99.90;;;;;;7374784;19;20054;-66
2023/10/31 11:25:23;;;;;;;5.30;0.95;;;12.80;99.90;;;;;;7376215;19;20465;-66
2023/10/31 11:27:53;;;;;;;6.88;1.10;;;12.80;99.90;;;;;;7375766;19;20014;-66
2023/10/31 11:30:30;;;;;;;5.97;0.90;;;12.70;99.90;;;;;;7374797;19;20486;-66
2023/10/31 11:32:58;;;;;;;3.92;0.77;;;12.70;99.90;;;;;;7378043;19;20023;-66
2023/10/31 11:35:25;;;;;;;5.88;1.08;;;12.70;99.90;;;;;;7378683;19;20010;-66
2023/10/31 11:38:03;;;;;;;2.33;0.63;;;12.70;99.90;;;;;;7377604;19;20312;-66
2023/10/31 11:40:29;;;;;;;4.60;0.90;;;12.70;99.90;;;;;;7375659;19;20022;-66
2023/10/31 11:43:02;;;;;;;3.38;0.70;;;12.60;99.90;;;;;;7377468;19;20018;-66
2023/10/31 11:45:36;;;;;;;5.35;0.80;;;12.50;99.90;;;;;;7374547;19;20015;-66
2023/10/31 11:48:07;;;;;;;6.53;1.52;;;12.50;99.90;;;;;;7376100;19;20018;-66
2023/10/31 11:50:36;;;;;;;2.33;0.65;;;12.50;99.90;;;;;;7372014;19;20018;-66
2023/10/31 11:53:13;;;;;;;4.45;0.93;;;12.50;99.90;;;;;;7376695;19;20010;-66
2023/10/31 11:55:42;;;;;;;5.60;0.85;;;12.60;99.90;;;;;;7377189;19;20078;-66
2023/10/31 11:58:22;;;;;;;2.60;1.00;;;12.70;99.90;;;;;;7381001;19;20030;-66
2023/10/31 12:01:00;;;;;;;3.25;0.90;;;12.70;99.90;;;;;;7376990;19;20121;-66
2023/10/31 12:03:26;;;;;;;1.95;0.68;;;12.70;99.90;;;;;;7377879;19;20022;-66
2023/10/31 12:05:53;;;;;;;4.63;1.75;;;12.50;99.90;;;;;;7380641;19;20353;-66
2023/10/31 12:08:34;;;;;;;4.07;1.02;;;12.50;99.90;;;;;;7382650;19;20026;-66
2023/10/31 12:11:17;;;;;;;7.72;2.38;;;12.30;99.90;;;;;;7380112;19;20417;-66
2023/10/31 12:14:00;;;;;;;5.85;1.55;;;12.30;99.90;;;;;;7376422;19;20431;-66
2023/10/31 12:16:28;;;;;;;5.78;1.63;;;12.20;99.90;;;;;;7381479;19;20019;-66
2023/10/31 12:19:00;;;;;;;4.90;1.77;;;12.10;99.90;;;;;;7376301;19;20045;-66
2023/10/31 12:21:38;;;;;;;5.97;1.38;;;12.10;99.90;;;;;;7378663;19;20018;-67
2023/10/31 12:24:06;;;;;;;6.50;2.00;;;11.90;99.90;;;;;;7382696;19;20081;-66
2023/10/31 12:26:34;;;;;;;5.20;1.15;;;12.00;99.90;;;;;;7379644;19;20026;-66
2023/10/31 12:29:12;;;;;;;7.28;1.60;;;12.00;99.90;;;;;;7381432;19;20010;-66
2023/10/31 12:31:51;;;;;;;5.90;1.63;;;12.00;99.90;;;;;;7379668;19;20117;-66
2023/10/31 12:34:22;;;;;;;5.90;2.20;;;12.00;99.90;;;;;;7376569;19;20014;-66
2023/10/31 12:36:51;;;;;;;12.23;5.20;;;12.00;99.90;;;;;;7377411;19;20743;-66
2023/10/31 12:39:28;;;;;;;7.75;3.20;;;12.10;99.90;;;;;;7379693;19;20055;-66
2023/10/31 12:41:57;;;;;;;7.60;2.50;;;12.10;99.90;;;;;;7377569;19;20021;-66
2023/10/31 12:44:26;;;;;;;5.30;1.80;;;12.10;99.90;;;;;;7378518;19;20541;-67